sensor_id;sensor_type;location;lat;lon;timestamp;pressure;altitude;pressure_sealevel;temperature;humidity
24762;BME280;12865;51.934;10.330;2024-02-14T00:00:15;99252.16;;;5.99;100.00
24762;BME280;12865;51.934;10.330;2024-02-14T00:03:01;99246.88;;;5.86;100.00
24762;BME280;12865;51.934;10.330;2024-02-14T00:05:47;99241.28;;;5.78;100.00
24762;BME280;12865;51.934;10.330;2024-02-14T00:08:32;99237.25;;;5.72;100.00
24762;BME280;12865;51.934;10.330;2024-02-14T00:11:18;99235.66;;;5.70;100.00
24762;BME280;12865;51.934;10.330;2024-02-14T00:14:04;99228.47;;;5.72;100.00
24762;BME280;12865;51.934;10.330;2024-02-14T00:16:49;99233.13;;;5.81;100.00
24762;BME280;12865;51.934;10.330;2024-02-14T00:19:36;99225.63;;;5.87;100.00
24762;BME280;12865;51.934;10.330;2024-02-14T00:22:23;99222.09;;;5.87;100.00
24762;BME280;12865;51.934;10.330;2024-02-14T00:25:09;99215.97;;;5.86;100.00
24762;BME280;12865;51.934;10.330;2024-02-14T00:27:54;99218.25;;;6.04;100.00
24762;BME280;12865;51.934;10.330;2024-02-14T00:30:40;99211.56;;;6.11;100.00
24762;BME280;12865;51.934;10.330;2024-02-14T00:33:26;99210.00;;;6.08;100.00
24762;BME280;12865;51.934;10.330;2024-02-14T00:36:12;99202.94;;;6.20;100.00
24762;BME280;12865;51.934;10.330;2024-02-14T00:38:57;99202.59;;;6.24;100.00
24762;BME280;12865;51.934;10.330;2024-02-14T00:41:43;99199.56;;;6.18;100.00
24762;BME280;12865;51.934;10.330;2024-02-14T00:44:29;99194.66;;;6.24;100.00
24762;BME280;12865;51.934;10.330;2024-02-14T00:47:14;99195.34;;;6.15;100.00
24762;BME280;12865;51.934;10.330;2024-02-14T00:50:01;99193.16;;;6.09;100.00
24762;BME280;12865;51.934;10.330;2024-02-14T00:52:47;99188.38;;;6.14;100.00
24762;BME280;12865;51.934;10.330;2024-02-14T00:55:32;99193.16;;;6.09;100.00
24762;BME280;12865;51.934;10.330;2024-02-14T00:58:18;99190.09;;;6.26;100.00
24762;BME280;12865;51.934;10.330;2024-02-14T01:01:04;99176.41;;;6.32;100.00
24762;BME280;12865;51.934;10.330;2024-02-14T01:03:49;99189.56;;;6.45;100.00
24762;BME280;12865;51.934;10.330;2024-02-14T01:06:35;99185.75;;;6.49;100.00
24762;BME280;12865;51.934;10.330;2024-02-14T01:09:21;99188.63;;;6.46;100.00
24762;BME280;12865;51.934;10.330;2024-02-14T01:12:10;99183.25;;;6.59;100.00
24762;BME280;12865;51.934;10.330;2024-02-14T01:14:55;99177.25;;;6.57;100.00
24762;BME280;12865;51.934;10.330;2024-02-14T01:17:41;99179.91;;;6.68;100.00
24762;BME280;12865;51.934;10.330;2024-02-14T01:20:27;99173.28;;;6.62;100.00
24762;BME280;12865;51.934;10.330;2024-02-14T01:23:12;99166.19;;;6.63;100.00
24762;BME280;12865;51.934;10.330;2024-02-14T01:25:58;99158.97;;;6.65;100.00
24762;BME280;12865;51.934;10.330;2024-02-14T01:28:44;99155.31;;;6.66;100.00
24762;BME280;12865;51.934;10.330;2024-02-14T01:31:30;99157.75;;;6.69;100.00
24762;BME280;12865;51.934;10.330;2024-02-14T01:34:16;99148.38;;;6.65;100.00
24762;BME280;12865;51.934;10.330;2024-02-14T01:37:02;99142.56;;;6.60;100.00
24762;BME280;12865;51.934;10.330;2024-02-14T01:39:48;99136.78;;;6.66;100.00
24762;BME280;12865;51.934;10.330;2024-02-14T01:42:34;99141.88;;;6.69;100.00
24762;BME280;12865;51.934;10.330;2024-02-14T01:45:19;99138.00;;;6.73;100.00
24762;BME280;12865;51.934;10.330;2024-02-14T01:48:06;99118.03;;;6.80;100.00
24762;BME280;12865;51.934;10.330;2024-02-14T01:50:52;99123.59;;;6.88;100.00
24762;BME280;12865;51.934;10.330;2024-02-14T01:53:38;99109.00;;;6.83;100.00
24762;BME280;12865;51.934;10.330;2024-02-14T01:56:24;99113.13;;;6.87;100.00
24762;BME280;12865;51.934;10.330;2024-02-14T01:59:10;99101.31;;;6.91;100.00
24762;BME280;12865;51.934;10.330;2024-02-14T02:01:56;99103.59;;;6.84;100.00
24762;BME280;12865;51.934;10.330;2024-02-14T02:04:42;99105.03;;;6.88;100.00
24762;BME280;12865;51.934;10.330;2024-02-14T02:07:28;99095.06;;;6.92;100.00
24762;BME280;12865;51.934;10.330;2024-02-14T02:10:14;99102.63;;;6.96;100.00
24762;BME280;12865;51.934;10.330;2024-02-14T02:13:00;99102.41;;;6.99;100.00
24762;BME280;12865;51.934;10.330;2024-02-14T02:15:46;99087.19;;;7.01;100.00
24762;BME280;12865;51.934;10.330;2024-02-14T02:18:32;99093.50;;;7.00;100.00
24762;BME280;12865;51.934;10.330;2024-02-14T02:21:18;99090.13;;;6.98;100.00
24762;BME280;12865;51.934;10.330;2024-02-14T02:24:08;99095.16;;;7.01;100.00
24762;BME280;12865;51.934;10.330;2024-02-14T02:26:54;99087.69;;;6.95;100.00
24762;BME280;12865;51.934;10.330;2024-02-14T02:29:40;99078.53;;;6.88;100.00
24762;BME280;12865;51.934;10.330;2024-02-14T02:32:26;99077.09;;;6.95;100.00
24762;BME280;12865;51.934;10.330;2024-02-14T02:35:11;99082.50;;;6.94;100.00
24762;BME280;12865;51.934;10.330;2024-02-14T02:37:57;99073.38;;;6.87;100.00
24762;BME280;12865;51.934;10.330;2024-02-14T02:40:44;99079.84;;;6.94;100.00
24762;BME280;12865;51.934;10.330;2024-02-14T02:43:29;99085.53;;;7.00;100.00
24762;BME280;12865;51.934;10.330;2024-02-14T02:46:15;99080.22;;;6.89;100.00
24762;BME280;12865;51.934;10.330;2024-02-14T02:49:01;99074.81;;;7.02;100.00
24762;BME280;12865;51.934;10.330;2024-02-14T02:51:47;99077.72;;;6.99;100.00
24762;BME280;12865;51.934;10.330;2024-02-14T02:54:33;99074.09;;;7.00;100.00
24762;BME280;12865;51.934;10.330;2024-02-14T02:57:19;99055.41;;;7.01;100.00
24762;BME280;12865;51.934;10.330;2024-02-14T03:00:06;99057.59;;;6.96;100.00
24762;BME280;12865;51.934;10.330;2024-02-14T03:02:53;99052.06;;;6.99;100.00
24762;BME280;12865;51.934;10.330;2024-02-14T03:05:38;99050.00;;;6.92;100.00
24762;BME280;12865;51.934;10.330;2024-02-14T03:08:24;99044.69;;;6.92;100.00
24762;BME280;12865;51.934;10.330;2024-02-14T03:11:11;99035.06;;;6.91;100.00
24762;BME280;12865;51.934;10.330;2024-02-14T03:13:56;99039.50;;;7.01;100.00
24762;BME280;12865;51.934;10.330;2024-02-14T03:16:42;99026.84;;;7.05;100.00
24762;BME280;12865;51.934;10.330;2024-02-14T03:19:28;99021.22;;;6.98;100.00
24762;BME280;12865;51.934;10.330;2024-02-14T03:22:14;99028.66;;;7.04;100.00
24762;BME280;12865;51.934;10.330;2024-02-14T03:24:59;99036.97;;;7.11;100.00
24762;BME280;12865;51.934;10.330;2024-02-14T03:27:45;99032.75;;;7.08;100.00
24762;BME280;12865;51.934;10.330;2024-02-14T03:30:32;99024.09;;;7.06;100.00
24762;BME280;12865;51.934;10.330;2024-02-14T03:33:19;99023.94;;;7.08;100.00
24762;BME280;12865;51.934;10.330;2024-02-14T03:36:05;99023.59;;;7.13;100.00
24762;BME280;12865;51.934;10.330;2024-02-14T03:38:51;99029.13;;;7.09;100.00
24762;BME280;12865;51.934;10.330;2024-02-14T03:41:36;99027.25;;;7.00;100.00
24762;BME280;12865;51.934;10.330;2024-02-14T03:44:22;99015.53;;;7.03;100.00
24762;BME280;12865;51.934;10.330;2024-02-14T03:47:08;99014.22;;;6.97;100.00
24762;BME280;12865;51.934;10.330;2024-02-14T03:49:54;99014.25;;;6.86;100.00
24762;BME280;12865;51.934;10.330;2024-02-14T03:52:40;99010.25;;;6.92;100.00
24762;BME280;12865;51.934;10.330;2024-02-14T03:55:27;99009.16;;;6.94;100.00
24762;BME280;12865;51.934;10.330;2024-02-14T03:58:15;98993.28;;;6.83;100.00
24762;BME280;12865;51.934;10.330;2024-02-14T04:01:07;98970.28;;;6.84;100.00
24762;BME280;12865;51.934;10.330;2024-02-14T04:03:53;98990.13;;;6.89;100.00
24762;BME280;12865;51.934;10.330;2024-02-14T04:06:39;98996.88;;;6.82;100.00
24762;BME280;12865;51.934;10.330;2024-02-14T04:09:27;98994.00;;;6.85;100.00
24762;BME280;12865;51.934;10.330;2024-02-14T04:12:13;99003.13;;;6.81;100.00
24762;BME280;12865;51.934;10.330;2024-02-14T04:14:59;98994.84;;;6.86;100.00
24762;BME280;12865;51.934;10.330;2024-02-14T04:17:45;98986.53;;;6.90;100.00
24762;BME280;12865;51.934;10.330;2024-02-14T04:20:30;98994.34;;;6.92;100.00
24762;BME280;12865;51.934;10.330;2024-02-14T04:23:16;99010.16;;;6.93;100.00
24762;BME280;12865;51.934;10.330;2024-02-14T04:26:02;99003.84;;;6.94;100.00
24762;BME280;12865;51.934;10.330;2024-02-14T04:28:47;98988.69;;;6.96;100.00
24762;BME280;12865;51.934;10.330;2024-02-14T04:31:33;98990.38;;;6.97;100.00
24762;BME280;12865;51.934;10.330;2024-02-14T04:34:19;98987.47;;;7.00;100.00
24762;BME280;12865;51.934;10.330;2024-02-14T04:37:08;98988.78;;;7.06;100.00
24762;BME280;12865;51.934;10.330;2024-02-14T04:39:58;98979.03;;;7.06;100.00
24762;BME280;12865;51.934;10.330;2024-02-14T04:42:43;98976.03;;;7.00;100.00
24762;BME280;12865;51.934;10.330;2024-02-14T04:45:29;98980.50;;;6.99;100.00
24762;BME280;12865;51.934;10.330;2024-02-14T04:48:15;98975.31;;;6.98;100.00
24762;BME280;12865;51.934;10.330;2024-02-14T04:51:01;98964.09;;;7.05;100.00
24762;BME280;12865;51.934;10.330;2024-02-14T04:53:47;98971.59;;;7.00;100.00
24762;BME280;12865;51.934;10.330;2024-02-14T04:56:33;98965.56;;;6.98;100.00
24762;BME280;12865;51.934;10.330;2024-02-14T04:59:18;98962.28;;;6.95;100.00
24762;BME280;12865;51.934;10.330;2024-02-14T05:02:04;98971.84;;;6.86;100.00
24762;BME280;12865;51.934;10.330;2024-02-14T05:04:50;98970.84;;;6.87;100.00
24762;BME280;12865;51.934;10.330;2024-02-14T05:07:36;98985.09;;;6.86;100.00
24762;BME280;12865;51.934;10.330;2024-02-14T05:10:22;98970.63;;;6.90;100.00
24762;BME280;12865;51.934;10.330;2024-02-14T05:13:07;98969.91;;;6.88;100.00
24762;BME280;12865;51.934;10.330;2024-02-14T05:15:53;98966.16;;;6.91;100.00
24762;BME280;12865;51.934;10.330;2024-02-14T05:18:39;98960.25;;;6.87;100.00
24762;BME280;12865;51.934;10.330;2024-02-14T05:21:24;98956.16;;;6.94;100.00
24762;BME280;12865;51.934;10.330;2024-02-14T05:24:10;98955.31;;;6.94;100.00
24762;BME280;12865;51.934;10.330;2024-02-14T05:26:56;98946.63;;;7.03;100.00
24762;BME280;12865;51.934;10.330;2024-02-14T05:29:41;98955.91;;;6.97;100.00
24762;BME280;12865;51.934;10.330;2024-02-14T05:32:27;98949.53;;;7.00;100.00
24762;BME280;12865;51.934;10.330;2024-02-14T05:35:13;98961.72;;;6.91;100.00
24762;BME280;12865;51.934;10.330;2024-02-14T05:37:58;98969.16;;;6.97;100.00
24762;BME280;12865;51.934;10.330;2024-02-14T05:40:45;98974.09;;;7.02;100.00
24762;BME280;12865;51.934;10.330;2024-02-14T05:43:30;98962.53;;;7.03;100.00
24762;BME280;12865;51.934;10.330;2024-02-14T05:46:16;98959.03;;;7.02;100.00
24762;BME280;12865;51.934;10.330;2024-02-14T05:49:02;98977.06;;;7.20;100.00
24762;BME280;12865;51.934;10.330;2024-02-14T05:51:48;98958.84;;;7.26;100.00
24762;BME280;12865;51.934;10.330;2024-02-14T05:54:34;98956.31;;;7.25;100.00
24762;BME280;12865;51.934;10.330;2024-02-14T05:57:19;98964.72;;;7.30;100.00
24762;BME280;12865;51.934;10.330;2024-02-14T06:00:06;98968.41;;;7.18;100.00
24762;BME280;12865;51.934;10.330;2024-02-14T06:02:52;98960.88;;;7.34;100.00
24762;BME280;12865;51.934;10.330;2024-02-14T06:05:38;98954.75;;;7.22;100.00
24762;BME280;12865;51.934;10.330;2024-02-14T06:08:24;98972.22;;;7.25;100.00
24762;BME280;12865;51.934;10.330;2024-02-14T06:11:10;98963.56;;;7.23;100.00
24762;BME280;12865;51.934;10.330;2024-02-14T06:13:55;98966.19;;;7.23;100.00
24762;BME280;12865;51.934;10.330;2024-02-14T06:16:41;98962.94;;;7.30;100.00
24762;BME280;12865;51.934;10.330;2024-02-14T06:19:27;98974.75;;;7.26;100.00
24762;BME280;12865;51.934;10.330;2024-02-14T06:22:13;98969.69;;;7.34;100.00
24762;BME280;12865;51.934;10.330;2024-02-14T06:25:00;98971.72;;;7.42;100.00
24762;BME280;12865;51.934;10.330;2024-02-14T06:27:45;98987.63;;;7.42;100.00
24762;BME280;12865;51.934;10.330;2024-02-14T06:30:31;98973.50;;;7.41;100.00
24762;BME280;12865;51.934;10.330;2024-02-14T06:33:17;98971.72;;;7.42;100.00
24762;BME280;12865;51.934;10.330;2024-02-14T06:36:03;98980.75;;;7.39;100.00
24762;BME280;12865;51.934;10.330;2024-02-14T06:38:49;98984.34;;;7.38;100.00
24762;BME280;12865;51.934;10.330;2024-02-14T06:41:35;98983.50;;;7.49;100.00
24762;BME280;12865;51.934;10.330;2024-02-14T06:44:21;98978.44;;;7.46;100.00
24762;BME280;12865;51.934;10.330;2024-02-14T06:47:07;98987.69;;;7.52;100.00
24762;BME280;12865;51.934;10.330;2024-02-14T06:49:52;98994.19;;;7.59;100.00
24762;BME280;12865;51.934;10.330;2024-02-14T06:52:38;98991.16;;;7.63;100.00
24762;BME280;12865;51.934;10.330;2024-02-14T06:55:24;99000.09;;;7.62;100.00
24762;BME280;12865;51.934;10.330;2024-02-14T06:58:09;98999.25;;;7.62;100.00
24762;BME280;12865;51.934;10.330;2024-02-14T07:00:55;98993.81;;;7.63;100.00
24762;BME280;12865;51.934;10.330;2024-02-14T07:03:41;99003.19;;;7.67;100.00
24762;BME280;12865;51.934;10.330;2024-02-14T07:06:27;99002.69;;;7.73;100.00
24762;BME280;12865;51.934;10.330;2024-02-14T07:09:13;99009.78;;;7.73;100.00
24762;BME280;12865;51.934;10.330;2024-02-14T07:11:59;98995.31;;;7.77;100.00
24762;BME280;12865;51.934;10.330;2024-02-14T07:14:46;99007.03;;;7.74;100.00
24762;BME280;12865;51.934;10.330;2024-02-14T07:17:32;99013.75;;;7.78;100.00
24762;BME280;12865;51.934;10.330;2024-02-14T07:20:18;99016.66;;;7.75;100.00
24762;BME280;12865;51.934;10.330;2024-02-14T07:23:04;99011.88;;;7.69;100.00
24762;BME280;12865;51.934;10.330;2024-02-14T07:25:50;99017.41;;;7.66;100.00
24762;BME280;12865;51.934;10.330;2024-02-14T07:28:36;99016.88;;;7.52;100.00
24762;BME280;12865;51.934;10.330;2024-02-14T07:31:22;99021.59;;;7.48;100.00
24762;BME280;12865;51.934;10.330;2024-02-14T07:34:08;99021.72;;;7.46;100.00
24762;BME280;12865;51.934;10.330;2024-02-14T07:36:54;99010.88;;;7.49;100.00
24762;BME280;12865;51.934;10.330;2024-02-14T07:39:40;99043.91;;;7.45;100.00
24762;BME280;12865;51.934;10.330;2024-02-14T07:42:26;99039.66;;;7.43;100.00
24762;BME280;12865;51.934;10.330;2024-02-14T07:45:12;99037.63;;;7.46;100.00
24762;BME280;12865;51.934;10.330;2024-02-14T07:47:58;99037.00;;;7.43;100.00
24762;BME280;12865;51.934;10.330;2024-02-14T07:50:44;99040.16;;;7.37;100.00
24762;BME280;12865;51.934;10.330;2024-02-14T07:53:29;99030.50;;;7.47;100.00
24762;BME280;12865;51.934;10.330;2024-02-14T07:56:15;99031.47;;;7.46;100.00
24762;BME280;12865;51.934;10.330;2024-02-14T07:59:03;99041.13;;;7.47;100.00
24762;BME280;12865;51.934;10.330;2024-02-14T08:01:50;99039.19;;;7.49;100.00
24762;BME280;12865;51.934;10.330;2024-02-14T08:04:36;99034.00;;;7.47;100.00
24762;BME280;12865;51.934;10.330;2024-02-14T08:07:22;99055.81;;;7.51;100.00
24762;BME280;12865;51.934;10.330;2024-02-14T08:10:08;99051.63;;;7.48;100.00
24762;BME280;12865;51.934;10.330;2024-02-14T08:12:54;99048.91;;;7.60;100.00
24762;BME280;12865;51.934;10.330;2024-02-14T08:15:40;99049.31;;;7.55;100.00
24762;BME280;12865;51.934;10.330;2024-02-14T08:18:25;99054.38;;;7.47;100.00
24762;BME280;12865;51.934;10.330;2024-02-14T08:21:12;99058.09;;;7.56;100.00
24762;BME280;12865;51.934;10.330;2024-02-14T08:23:58;99064.88;;;7.48;100.00
24762;BME280;12865;51.934;10.330;2024-02-14T08:26:46;99055.22;;;7.47;100.00
24762;BME280;12865;51.934;10.330;2024-02-14T08:29:32;99055.34;;;7.46;100.00
24762;BME280;12865;51.934;10.330;2024-02-14T08:32:18;99063.53;;;7.43;100.00
24762;BME280;12865;51.934;10.330;2024-02-14T08:35:04;99059.47;;;7.39;100.00
24762;BME280;12865;51.934;10.330;2024-02-14T08:37:50;99063.81;;;7.40;100.00
24762;BME280;12865;51.934;10.330;2024-02-14T08:40:35;99059.09;;;7.43;100.00
24762;BME280;12865;51.934;10.330;2024-02-14T08:43:22;99076.56;;;7.46;100.00
24762;BME280;12865;51.934;10.330;2024-02-14T08:46:10;99058.34;;;7.53;100.00
24762;BME280;12865;51.934;10.330;2024-02-14T08:48:56;99061.38;;;7.48;100.00
24762;BME280;12865;51.934;10.330;2024-02-14T08:51:42;99068.56;;;7.57;100.00
24762;BME280;12865;51.934;10.330;2024-02-14T08:54:29;99062.81;;;7.52;100.00
24762;BME280;12865;51.934;10.330;2024-02-14T08:57:15;99058.81;;;7.58;100.00
24762;BME280;12865;51.934;10.330;2024-02-14T09:00:01;99057.59;;;7.62;100.00
24762;BME280;12865;51.934;10.330;2024-02-14T09:02:48;99070.75;;;7.63;100.00
24762;BME280;12865;51.934;10.330;2024-02-14T09:05:33;99058.84;;;7.78;100.00
24762;BME280;12865;51.934;10.330;2024-02-14T09:08:20;99062.25;;;7.80;100.00
24762;BME280;12865;51.934;10.330;2024-02-14T09:11:06;99068.28;;;7.82;100.00
24762;BME280;12865;51.934;10.330;2024-02-14T09:13:51;99076.06;;;7.95;100.00
24762;BME280;12865;51.934;10.330;2024-02-14T09:16:41;99074.47;;;8.04;100.00
24762;BME280;12865;51.934;10.330;2024-02-14T09:19:27;99083.81;;;8.19;100.00
24762;BME280;12865;51.934;10.330;2024-02-14T09:22:13;99075.31;;;8.25;100.00
24762;BME280;12865;51.934;10.330;2024-02-14T09:25:04;99087.84;;;8.34;100.00
24762;BME280;12865;51.934;10.330;2024-02-14T09:27:49;99083.25;;;8.36;100.00
24762;BME280;12865;51.934;10.330;2024-02-14T09:30:36;99089.28;;;8.38;100.00
24762;BME280;12865;51.934;10.330;2024-02-14T09:33:22;99093.50;;;8.41;100.00
24762;BME280;12865;51.934;10.330;2024-02-14T09:36:08;99096.63;;;8.46;100.00
24762;BME280;12865;51.934;10.330;2024-02-14T09:38:53;99091.94;;;8.38;100.00
24762;BME280;12865;51.934;10.330;2024-02-14T09:41:41;99092.66;;;8.40;100.00
24762;BME280;12865;51.934;10.330;2024-02-14T09:44:28;99098.09;;;8.39;100.00
24762;BME280;12865;51.934;10.330;2024-02-14T09:47:15;99101.81;;;8.47;100.00
24762;BME280;12865;51.934;10.330;2024-02-14T09:50:02;99101.81;;;8.47;100.00
24762;BME280;12865;51.934;10.330;2024-02-14T09:52:51;99092.78;;;8.59;100.00
24762;BME280;12865;51.934;10.330;2024-02-14T09:55:38;99095.69;;;8.56;100.00
24762;BME280;12865;51.934;10.330;2024-02-14T09:58:26;99098.81;;;8.61;100.00
24762;BME280;12865;51.934;10.330;2024-02-14T10:01:12;99109.44;;;8.61;100.00
24762;BME280;12865;51.934;10.330;2024-02-14T10:03:58;99100.47;;;8.62;100.00
24762;BME280;12865;51.934;10.330;2024-02-14T10:06:46;99100.56;;;8.72;100.00
24762;BME280;12865;51.934;10.330;2024-02-14T10:09:40;99114.44;;;8.76;100.00
24762;BME280;12865;51.934;10.330;2024-02-14T10:12:28;99123.09;;;8.78;100.00
24762;BME280;12865;51.934;10.330;2024-02-14T10:15:15;99126.47;;;8.80;100.00
24762;BME280;12865;51.934;10.330;2024-02-14T10:18:01;99128.59;;;8.86;100.00
24762;BME280;12865;51.934;10.330;2024-02-14T10:20:58;99125.31;;;8.73;100.00
24762;BME280;12865;51.934;10.330;2024-02-14T10:23:43;99140.41;;;8.72;100.00
24762;BME280;12865;51.934;10.330;2024-02-14T10:26:30;99142.66;;;8.77;100.00
24762;BME280;12865;51.934;10.330;2024-02-14T10:29:16;99149.47;;;8.90;100.00
24762;BME280;12865;51.934;10.330;2024-02-14T10:32:02;99142.94;;;8.94;100.00
24762;BME280;12865;51.934;10.330;2024-02-14T10:34:48;99145.06;;;9.00;100.00
24762;BME280;12865;51.934;10.330;2024-02-14T10:37:34;99149.94;;;8.95;100.00
24762;BME280;12865;51.934;10.330;2024-02-14T10:40:21;99146.47;;;9.04;100.00
24762;BME280;12865;51.934;10.330;2024-02-14T10:43:07;99135.81;;;8.95;100.00
24762;BME280;12865;51.934;10.330;2024-02-14T10:45:59;99136.69;;;9.05;100.00
24762;BME280;12865;51.934;10.330;2024-02-14T10:48:45;99142.06;;;9.15;100.00
24762;BME280;12865;51.934;10.330;2024-02-14T10:51:32;99145.81;;;9.12;100.00
24762;BME280;12865;51.934;10.330;2024-02-14T10:54:19;99141.53;;;9.21;100.00
24762;BME280;12865;51.934;10.330;2024-02-14T10:57:06;99150.59;;;9.18;100.00
24762;BME280;12865;51.934;10.330;2024-02-14T11:00:04;99145.94;;;9.31;100.00
24762;BME280;12865;51.934;10.330;2024-02-14T11:02:52;99148.75;;;9.39;100.00
24762;BME280;12865;51.934;10.330;2024-02-14T11:05:46;99147.81;;;9.50;100.00
24762;BME280;12865;51.934;10.330;2024-02-14T11:08:32;99155.66;;;9.52;100.00
24762;BME280;12865;51.934;10.330;2024-02-14T11:11:19;99149.81;;;9.58;100.00
24762;BME280;12865;51.934;10.330;2024-02-14T11:14:06;99157.47;;;9.51;100.00
24762;BME280;12865;51.934;10.330;2024-02-14T11:16:52;99160.16;;;9.51;100.00
24762;BME280;12865;51.934;10.330;2024-02-14T11:19:37;99169.84;;;9.62;100.00
24762;BME280;12865;51.934;10.330;2024-02-14T11:22:23;99164.25;;;9.65;100.00
24762;BME280;12865;51.934;10.330;2024-02-14T11:25:14;99174.25;;;9.42;100.00
24762;BME280;12865;51.934;10.330;2024-02-14T11:28:12;99172.56;;;9.41;100.00
24762;BME280;12865;51.934;10.330;2024-02-14T11:31:00;99169.06;;;9.40;100.00
24762;BME280;12865;51.934;10.330;2024-02-14T11:33:48;99166.44;;;9.50;100.00
24762;BME280;12865;51.934;10.330;2024-02-14T11:36:36;99164.50;;;9.52;100.00
24762;BME280;12865;51.934;10.330;2024-02-14T11:39:22;99169.97;;;9.60;100.00
24762;BME280;12865;51.934;10.330;2024-02-14T11:42:07;99171.66;;;9.61;100.00
24762;BME280;12865;51.934;10.330;2024-02-14T11:44:54;99182.16;;;9.63;100.00
24762;BME280;12865;51.934;10.330;2024-02-14T11:47:43;99169.28;;;9.58;100.00
24762;BME280;12865;51.934;10.330;2024-02-14T11:50:29;99175.75;;;9.65;100.00
24762;BME280;12865;51.934;10.330;2024-02-14T11:53:16;99174.78;;;9.66;100.00
24762;BME280;12865;51.934;10.330;2024-02-14T11:56:05;99182.84;;;9.55;100.00
24762;BME280;12865;51.934;10.330;2024-02-14T11:58:50;99183.97;;;9.53;100.00
24762;BME280;12865;51.934;10.330;2024-02-14T12:01:37;99184.94;;;9.52;100.00
24762;BME280;12865;51.934;10.330;2024-02-14T12:04:23;99185.38;;;9.57;100.00
24762;BME280;12865;51.934;10.330;2024-02-14T12:07:09;99184.63;;;9.45;100.00
24762;BME280;12865;51.934;10.330;2024-02-14T12:09:55;99180.53;;;9.41;100.00
24762;BME280;12865;51.934;10.330;2024-02-14T12:12:45;99185.72;;;9.42;100.00
24762;BME280;12865;51.934;10.330;2024-02-14T12:15:37;99180.34;;;9.33;100.00
24762;BME280;12865;51.934;10.330;2024-02-14T12:18:22;99181.91;;;9.35;100.00
24762;BME280;12865;51.934;10.330;2024-02-14T12:21:08;99198.28;;;9.31;100.00
24762;BME280;12865;51.934;10.330;2024-02-14T12:26:50;99189.13;;;9.44;100.00
24762;BME280;12865;51.934;10.330;2024-02-14T12:29:37;99195.53;;;9.42;100.00
24762;BME280;12865;51.934;10.330;2024-02-14T12:32:23;99192.22;;;9.50;100.00
24762;BME280;12865;51.934;10.330;2024-02-14T12:35:10;99200.38;;;9.58;100.00
24762;BME280;12865;51.934;10.330;2024-02-14T12:37:56;99206.53;;;9.58;100.00
24762;BME280;12865;51.934;10.330;2024-02-14T12:40:42;99205.56;;;9.59;100.00
24762;BME280;12865;51.934;10.330;2024-02-14T12:43:27;99209.38;;;9.66;100.00
24762;BME280;12865;51.934;10.330;2024-02-14T12:46:14;99204.63;;;9.70;100.00
24762;BME280;12865;51.934;10.330;2024-02-14T12:48:59;99198.88;;;9.74;100.00
24762;BME280;12865;51.934;10.330;2024-02-14T12:51:45;99208.25;;;9.69;100.00
24762;BME280;12865;51.934;10.330;2024-02-14T12:54:31;99196.09;;;9.76;100.00
24762;BME280;12865;51.934;10.330;2024-02-14T12:57:17;99201.41;;;9.76;100.00
24762;BME280;12865;51.934;10.330;2024-02-14T13:00:04;99194.84;;;9.80;100.00
24762;BME280;12865;51.934;10.330;2024-02-14T13:02:54;99201.03;;;9.90;100.00
24762;BME280;12865;51.934;10.330;2024-02-14T13:05:40;99196.69;;;9.89;100.00
24762;BME280;12865;51.934;10.330;2024-02-14T13:08:26;99204.81;;;9.88;100.00
24762;BME280;12865;51.934;10.330;2024-02-14T13:11:12;99205.94;;;9.85;100.00
24762;BME280;12865;51.934;10.330;2024-02-14T13:13:59;99202.56;;;9.83;100.00
24762;BME280;12865;51.934;10.330;2024-02-14T13:16:45;99200.47;;;9.87;100.00
24762;BME280;12865;51.934;10.330;2024-02-14T13:19:31;99205.22;;;9.83;100.00
24762;BME280;12865;51.934;10.330;2024-02-14T13:22:17;99195.28;;;9.85;100.00
24762;BME280;12865;51.934;10.330;2024-02-14T13:25:02;99195.69;;;9.90;100.00
24762;BME280;12865;51.934;10.330;2024-02-14T13:27:50;99200.91;;;9.92;100.00
24762;BME280;12865;51.934;10.330;2024-02-14T13:30:36;99191.94;;;9.93;100.00
24762;BME280;12865;51.934;10.330;2024-02-14T13:33:21;99203.16;;;9.96;100.00
24762;BME280;12865;51.934;10.330;2024-02-14T13:36:07;99201.44;;;9.85;100.00
24762;BME280;12865;51.934;10.330;2024-02-14T13:38:53;99196.38;;;9.82;100.00
24762;BME280;12865;51.934;10.330;2024-02-14T13:41:40;99181.97;;;9.85;100.00
24762;BME280;12865;51.934;10.330;2024-02-14T13:44:25;99183.50;;;9.78;100.00
24762;BME280;12865;51.934;10.330;2024-02-14T13:47:12;99188.56;;;9.81;100.00
24762;BME280;12865;51.934;10.330;2024-02-14T13:49:57;99176.22;;;9.80;100.00
24762;BME280;12865;51.934;10.330;2024-02-14T13:52:43;99182.69;;;9.87;100.00
24762;BME280;12865;51.934;10.330;2024-02-14T13:55:29;99176.22;;;9.80;100.00
24762;BME280;12865;51.934;10.330;2024-02-14T13:58:15;99178.59;;;9.83;100.00
24762;BME280;12865;51.934;10.330;2024-02-14T14:01:02;99182.91;;;9.74;100.00
24762;BME280;12865;51.934;10.330;2024-02-14T14:03:48;99194.69;;;9.72;100.00
24762;BME280;12865;51.934;10.330;2024-02-14T14:06:35;99179.13;;;9.77;100.00
24762;BME280;12865;51.934;10.330;2024-02-14T14:09:21;99177.63;;;9.84;100.00
24762;BME280;12865;51.934;10.330;2024-02-14T14:12:07;99191.88;;;9.73;100.00
24762;BME280;12865;51.934;10.330;2024-02-14T14:14:52;99189.06;;;9.75;100.00
24762;BME280;12865;51.934;10.330;2024-02-14T14:17:38;99183.06;;;9.73;100.00
24762;BME280;12865;51.934;10.330;2024-02-14T14:20:24;99183.63;;;9.76;100.00
24762;BME280;12865;51.934;10.330;2024-02-14T14:23:10;99183.91;;;9.83;100.00
24762;BME280;12865;51.934;10.330;2024-02-14T14:25:55;99190.63;;;9.77;100.00
24762;BME280;12865;51.934;10.330;2024-02-14T14:28:41;99201.16;;;9.79;100.00
24762;BME280;12865;51.934;10.330;2024-02-14T14:31:27;99197.69;;;9.88;100.00